Time;durP1;ratioP1;P1;durP2;ratioP2;P2;SDS_P1;SDS_P2;PMS_P1;PMS_P2;Temp;Humidity;BMP_temperature;BMP_pressure;BME280_temperature;BME280_humidity;BME280_pressure;Samples;Min_cycle;Max_cycle;Signal;HPM_P1;HPM_P2
2021/05/11 00:00:20;;;;;;;8.68;4.40;;;;;;;17.60;48.31;100722.22;4955945;28;20043;-52
2021/05/11 00:02:50;;;;;;;8.25;3.28;;;;;;;17.58;47.79;100707.94;4970116;28;20112;-53
2021/05/11 00:05:17;;;;;;;8.07;3.00;;;;;;;17.53;48.01;100710.84;4954930;28;20042;-54
2021/05/11 00:07:44;;;;;;;7.82;3.40;;;;;;;17.48;48.26;100708.25;4955205;28;20043;-52
2021/05/11 00:10:12;;;;;;;6.85;2.97;;;;;;;17.45;48.40;100709.69;4954419;28;20078;-54
2021/05/11 00:12:40;;;;;;;8.20;2.97;;;;;;;17.45;48.75;100707.75;4954767;28;20043;-55
2021/05/11 00:15:07;;;;;;;8.68;2.90;;;;;;;17.46;48.30;100701.13;4954262;28;20047;-55
2021/05/11 00:17:35;;;;;;;6.80;2.72;;;;;;;17.45;48.73;100710.50;4954062;28;20039;-55
2021/05/11 00:20:02;;;;;;;8.35;3.10;;;;;;;17.45;48.78;100705.00;4954049;28;20066;-55
2021/05/11 00:22:30;;;;;;;8.45;3.90;;;;;;;17.49;48.49;100709.88;4954205;28;20054;-55
2021/05/11 00:24:57;;;;;;;8.57;3.83;;;;;;;17.50;48.71;100708.75;4954540;28;20070;-57
2021/05/11 00:27:24;;;;;;;7.88;3.58;;;;;;;17.51;48.45;100710.34;4969244;28;20495;-55
2021/05/11 00:29:51;;;;;;;7.63;3.70;;;;;;;17.50;48.59;100706.00;4954115;28;20442;-54
2021/05/11 00:32:18;;;;;;;7.88;3.50;;;;;;;17.51;48.45;100700.16;4953637;28;20047;-55
2021/05/11 00:34:45;;;;;;;8.02;3.17;;;;;;;17.52;48.65;100700.97;4953886;28;20506;-56
2021/05/11 00:37:12;;;;;;;9.15;3.00;;;;;;;17.50;48.53;100709.53;4953914;28;20047;-55
2021/05/11 00:39:40;;;;;;;12.20;3.30;;;;;;;17.49;48.74;100715.41;4968926;28;20063;-54
2021/05/11 00:42:07;;;;;;;7.00;2.83;;;;;;;17.45;48.27;100710.50;4954417;28;20039;-52
2021/05/11 00:44:34;;;;;;;7.03;2.65;;;;;;;17.43;48.45;100707.25;4954428;28;20051;-52
2021/05/11 00:47:04;;;;;;;9.88;3.15;;;;;;;17.42;48.80;100704.81;4945629;28;20454;-52
2021/05/11 00:49:34;;;;;;;6.90;2.60;;;;;;;17.41;48.90;100704.03;4952734;29;20094;-53
2021/05/11 00:52:03;;;;;;;6.13;2.63;;;;;;;17.39;48.85;100711.78;4953914;28;20074;-52
2021/05/11 00:54:31;;;;;;;9.63;2.97;;;;;;;17.38;48.83;100703.81;4954032;28;20047;-53
2021/05/11 00:56:58;;;;;;;7.03;2.80;;;;;;;17.36;48.70;100701.38;4954059;28;20079;-52
2021/05/11 00:59:26;;;;;;;7.22;3.17;;;;;;;17.36;48.82;100695.88;4952793;29;20102;-53
2021/05/11 01:01:59;;;;;;;8.18;3.00;;;;;;;17.34;49.21;100697.31;4953199;28;20043;-53
2021/05/11 01:04:26;;;;;;;8.00;2.95;;;;;;;17.32;49.42;100700.41;4968932;28;20039;-52
2021/05/11 01:06:54;;;;;;;6.20;2.80;;;;;;;17.31;49.27;100701.50;4953962;28;20428;-53
2021/05/11 01:09:22;;;;;;;6.72;2.70;;;;;;;17.31;48.93;100689.69;4954028;28;20048;-53
2021/05/11 01:11:50;;;;;;;6.28;2.72;;;;;;;17.31;49.06;100692.44;4953782;28;20505;-52
2021/05/11 01:14:18;;;;;;;7.45;2.97;;;;;;;17.31;48.99;100697.97;4955367;28;20549;-55
2021/05/11 01:16:48;;;;;;;8.30;2.83;;;;;;;17.29;49.08;100703.78;4960437;28;20074;-55
2021/05/11 01:19:21;;;;;;;8.82;2.70;;;;;;;17.29;49.31;100703.78;4960142;28;20459;-55
2021/05/11 01:24:45;;;;;;;5.70;2.75;;;;;;;17.27;49.65;100684.03;4957637;28;20098;-50
2021/05/11 01:29:56;;;;;;;5.63;2.70;;;;;;;17.21;50.00;100674.25;4957170;28;20050;-57
2021/05/11 01:48:48;;;;;;;9.52;3.40;;;;;;;16.94;50.97;100678.00;4956796;28;20070;-55
2021/05/11 02:10:02;;;;;;;10.18;3.45;;;;;;;16.82;52.25;100678.56;4956523;28;20051;-54
2021/05/11 02:24:28;;;;;;;8.23;3.20;;;;;;;16.31;55.16;100704.53;4956356;28;20090;-55
2021/05/11 02:26:55;;;;;;;7.55;3.28;;;;;;;16.38;55.12;100699.41;4956323;28;20837;-53
2021/05/11 02:29:22;;;;;;;8.20;3.03;;;;;;;16.47;54.70;100688.47;4956013;28;20031;-54
2021/05/11 02:31:49;;;;;;;8.25;3.30;;;;;;;16.51;54.63;100687.53;4956060;28;20090;-52
2021/05/11 02:34:16;;;;;;;7.05;2.95;;;;;;;16.41;54.93;100698.78;4954764;29;20106;-53
2021/05/11 02:36:43;;;;;;;12.90;3.40;;;;;;;16.31;55.42;100694.34;4956518;28;20475;-55
2021/05/11 02:39:11;;;;;;;9.23;3.17;;;;;;;16.24;55.74;100693.94;4955908;28;20047;-53
2021/05/11 02:41:41;;;;;;;7.95;2.92;;;;;;;16.22;55.63;100689.88;4956068;28;20130;-52
2021/05/11 02:44:08;;;;;;;7.03;2.55;;;;;;;16.28;55.34;100696.88;4955787;28;20389;-54
2021/05/11 02:46:36;;;;;;;9.45;3.30;;;;;;;16.35;55.22;100694.50;4956299;28;20557;-51
2021/05/11 02:49:03;;;;;;;6.50;2.55;;;;;;;16.40;53.71;100689.72;4955997;28;20074;-51
2021/05/11 02:51:30;;;;;;;7.88;2.88;;;;;;;16.43;53.98;100695.69;4956107;28;20498;-54
2021/05/11 02:53:57;;;;;;;8.15;3.03;;;;;;;16.40;54.25;100694.38;4955730;28;20059;-53
2021/05/11 02:56:24;;;;;;;8.75;3.13;;;;;;;16.29;54.43;100695.75;4956052;28;20039;-52
2021/05/11 02:58:52;;;;;;;7.22;3.13;;;;;;;16.23;54.68;100691.50;4955456;28;20043;-55
2021/05/11 03:01:19;;;;;;;7.88;2.85;;;;;;;16.21;54.78;100699.22;4955846;28;20047;-51
2021/05/11 03:03:46;;;;;;;7.72;2.58;;;;;;;16.26;54.46;100696.34;4955422;28;20043;-50
2021/05/11 03:06:13;;;;;;;7.47;2.70;;;;;;;16.26;53.97;100690.84;4955719;28;20450;-50
2021/05/11 03:08:43;;;;;;;9.27;3.38;;;;;;;16.27;54.18;100687.81;4955322;28;20051;-54
2021/05/11 03:11:11;;;;;;;7.50;2.80;;;;;;;16.33;53.62;100685.75;4955484;28;20462;-50
2021/05/11 03:13:38;;;;;;;6.55;2.60;;;;;;;16.36;53.60;100680.47;4954904;28;20043;-56
2021/05/11 03:16:05;;;;;;;8.13;2.90;;;;;;;16.39;53.33;100684.53;4955644;28;20039;-53
2021/05/11 03:18:32;;;;;;;7.60;2.40;;;;;;;16.37;53.66;100684.03;4955402;28;20090;-53
2021/05/11 03:21:00;;;;;;;7.18;2.72;;;;;;;16.36;53.79;100685.16;4955363;28;20051;-55
2021/05/11 03:23:27;;;;;;;5.70;2.53;;;;;;;16.36;53.66;100685.97;4955216;28;20399;-54
2021/05/11 03:25:54;;;;;;;12.43;3.50;;;;;;;16.39;53.95;100681.78;4955063;28;20050;-55
2021/05/11 03:28:21;;;;;;;6.35;2.80;;;;;;;16.43;53.70;100685.53;4954894;28;20438;-52
2021/05/11 03:30:49;;;;;;;7.10;2.78;;;;;;;16.47;53.59;100680.22;4955113;28;20043;-52
2021/05/11 03:33:17;;;;;;;7.97;2.90;;;;;;;16.49;53.77;100684.28;4954992;28;20067;-54
2021/05/11 03:35:44;;;;;;;7.72;3.13;;;;;;;16.50;53.49;100685.09;4954747;28;20172;-55
2021/05/11 03:38:11;;;;;;;9.95;3.25;;;;;;;16.47;53.47;100681.03;4954271;28;20046;-52
2021/05/11 03:40:39;;;;;;;7.35;2.75;;;;;;;16.45;53.54;100687.97;4954655;28;20545;-53
2021/05/11 03:43:13;;;;;;;7.50;3.10;;;;;;;16.44;53.57;100683.59;4954805;28;20039;-51
2021/05/11 03:45:44;;;;;;;9.50;3.15;;;;;;;16.42;53.89;100683.91;4954933;28;20494;-53
2021/05/11 03:48:12;;;;;;;9.38;3.30;;;;;;;16.41;53.79;100676.78;4954918;28;20435;-55
2021/05/11 03:50:40;;;;;;;6.60;2.88;;;;;;;16.42;54.13;100691.34;4954778;28;20082;-54
2021/05/11 03:53:07;;;;;;;8.60;3.00;;;;;;;16.38;54.00;100682.91;4954964;28;20043;-55
2021/05/11 03:55:35;;;;;;;6.80;2.90;;;;;;;16.36;54.30;100687.91;4954265;28;20086;-53
2021/05/11 03:58:03;;;;;;;8.50;3.20;;;;;;;16.32;54.52;100684.94;4954833;28;20043;-54
2021/05/11 04:00:31;;;;;;;8.43;3.05;;;;;;;16.30;54.77;100686.38;4954695;28;20093;-55
2021/05/11 04:02:58;;;;;;;7.07;3.10;;;;;;;16.30;54.47;100691.88;4954609;28;20047;-55
2021/05/11 04:05:26;;;;;;;6.90;2.95;;;;;;;16.30;54.72;100694.63;4954406;28;20045;-53
2021/05/11 04:07:57;;;;;;;8.73;3.03;;;;;;;16.30;54.87;100694.63;4954543;28;20051;-56
2021/05/11 04:10:34;;;;;;;8.27;3.03;;;;;;;16.34;54.64;100690.16;4953997;28;20893;-53
2021/05/11 04:18:30;;;;;;;;;;;;;;;16.29;54.40;100693.81;4954617;28;20461;-53
2021/05/11 04:20:58;;;;;;;8.25;3.05;;;;;;;16.32;54.50;100693.19;4940972;29;19926;-52
2021/05/11 04:23:25;;;;;;;9.45;3.22;;;;;;;16.34;54.33;100698.41;4954517;28;20529;-54
2021/05/11 04:25:53;;;;;;;8.40;2.88;;;;;;;16.35;54.72;100702.75;4953863;28;20051;-53
2021/05/11 04:28:21;;;;;;;7.32;2.95;;;;;;;16.35;54.83;100695.31;4954077;28;20442;-53
2021/05/11 04:30:48;;;;;;;9.30;2.97;;;;;;;16.36;54.31;100696.16;4954259;28;20445;-55
2021/05/11 04:33:16;;;;;;;9.10;2.92;;;;;;;16.36;54.51;100693.41;4953956;28;20044;-56
2021/05/11 04:35:44;;;;;;;6.75;2.92;;;;;;;16.34;54.54;100687.41;4953867;28;20098;-54
2021/05/11 04:38:11;;;;;;;7.47;3.30;;;;;;;16.32;54.59;100695.13;4954087;28;20031;-53
2021/05/11 04:40:39;;;;;;;8.23;3.33;;;;;;;16.32;54.78;100689.63;4953516;28;20532;-52
2021/05/11 04:43:11;;;;;;;7.63;3.03;;;;;;;16.30;55.09;100686.38;4953920;28;20066;-56
2021/05/11 04:45:39;;;;;;;7.15;3.45;;;;;;;16.31;54.59;100694.34;4953127;29;20054;-55
2021/05/11 04:48:09;;;;;;;9.98;3.50;;;;;;;16.30;54.79;100689.94;4953808;28;20482;-54
2021/05/11 04:50:36;;;;;;;10.00;3.10;;;;;;;16.24;55.03;100698.63;4954243;28;20483;-52
2021/05/11 04:53:04;;;;;;;10.55;3.50;;;;;;;16.14;55.62;100705.97;4953567;28;20483;-55
2021/05/11 04:55:33;;;;;;;7.15;3.40;;;;;;;16.01;56.36;100698.56;4953592;28;20067;-53
2021/05/11 04:58:01;;;;;;;12.63;3.42;;;;;;;15.92;56.33;100703.13;4953909;28;20047;-54
2021/05/11 05:00:29;;;;;;;8.90;3.30;;;;;;;15.86;56.90;100702.44;4953646;28;20043;-55
2021/05/11 05:03:00;;;;;;;8.07;3.30;;;;;;;15.89;57.10;100701.00;4953783;28;20047;-55
2021/05/11 05:05:28;;;;;;;9.35;3.15;;;;;;;15.94;56.96;100709.16;4953805;28;20134;-55
2021/05/11 05:07:55;;;;;;;9.07;2.85;;;;;;;16.00;56.40;100707.94;4953236;28;20051;-52
2021/05/11 05:10:23;;;;;;;7.30;3.33;;;;;;;16.05;56.36;100713.31;4953606;28;20081;-52
2021/05/11 05:12:52;;;;;;;8.25;3.05;;;;;;;16.06;56.43;100706.69;4953752;28;20106;-55
2021/05/11 05:15:19;;;;;;;9.25;3.63;;;;;;;16.05;56.24;100707.00;4953735;28;20047;-51
2021/05/11 05:17:47;;;;;;;11.00;3.33;;;;;;;16.06;56.72;100712.19;4953694;28;20055;-51
2021/05/11 05:20:15;;;;;;;8.73;3.03;;;;;;;16.06;56.73;100709.44;4953080;28;20039;-52
2021/05/11 05:22:43;;;;;;;8.10;3.08;;;;;;;16.08;56.21;100712.69;4953031;28;20056;-52
2021/05/11 05:25:18;;;;;;;8.07;3.25;;;;;;;16.10;56.18;100704.97;4953395;28;20043;-51
2021/05/11 05:27:56;;;;;;;9.95;3.55;;;;;;;16.13;56.34;100706.28;4942790;29;20047;-53
2021/05/11 05:30:25;;;;;;;6.05;2.75;;;;;;;16.15;56.38;100707.59;4953486;28;20129;-54
2021/05/11 05:33:01;;;;;;;10.77;3.42;;;;;;;16.14;56.16;100713.41;4942801;29;20067;-54
2021/05/11 05:35:34;;;;;;;8.93;3.25;;;;;;;16.09;56.45;100697.84;4953145;28;20066;-54
2021/05/11 05:38:02;;;;;;;9.23;3.10;;;;;;;16.08;56.51;100701.69;4957457;28;20035;-54
2021/05/11 05:40:30;;;;;;;9.38;3.47;;;;;;;16.11;56.69;100706.56;4953140;28;20051;-54
2021/05/11 05:42:58;;;;;;;12.68;3.30;;;;;;;16.11;56.38;100706.56;4953366;28;20525;-52
2021/05/11 05:45:25;;;;;;;12.07;3.63;;;;;;;16.12;56.39;100710.16;4953249;28;20110;-52
2021/05/11 05:47:53;;;;;;;13.93;3.78;;;;;;;16.07;56.74;100711.06;4953057;28;20441;-54
2021/05/11 05:50:26;;;;;;;10.45;3.72;;;;;;;16.07;56.68;100705.56;4953112;28;20051;-54
2021/05/11 05:53:03;;;;;;;7.47;3.10;;;;;;;16.10;56.76;100701.41;4951763;28;20043;-54
2021/05/11 05:55:31;;;;;;;12.13;3.38;;;;;;;16.13;56.73;100698.84;4953418;28;20055;-51
2021/05/11 05:57:58;;;;;;;11.57;3.72;;;;;;;16.17;56.99;100705.34;4952528;29;20495;-53
2021/05/11 06:00:26;;;;;;;10.40;3.40;;;;;;;16.14;56.89;100699.66;4954079;28;20040;-52
2021/05/11 06:02:55;;;;;;;9.48;3.20;;;;;;;16.10;57.22;100707.69;4956910;28;20069;-52
2021/05/11 06:05:23;;;;;;;7.80;3.30;;;;;;;16.10;56.95;100715.94;4957221;28;20395;-54
2021/05/11 06:07:52;;;;;;;9.93;3.42;;;;;;;16.13;56.99;100715.31;4956926;28;20118;-52
2021/05/11 06:10:20;;;;;;;11.48;3.38;;;;;;;16.17;57.08;100710.84;4956556;28;20058;-54
2021/05/11 06:12:52;;;;;;;9.10;3.28;;;;;;;16.18;57.00;100712.47;4956595;28;20059;-52
2021/05/11 06:18:06;;;;;;;10.90;3.67;;;;;;;16.22;57.17;100712.69;4956481;28;20058;-54
2021/05/11 06:20:34;;;;;;;12.07;3.63;;;;;;;16.25;57.08;100712.06;4955783;28;20493;-52
2021/05/11 06:23:02;;;;;;;7.35;3.20;;;;;;;16.26;57.64;100712.84;4956464;28;20039;-53
2021/05/11 06:25:30;;;;;;;9.15;3.17;;;;;;;16.28;57.24;100710.63;4956481;28;20043;-53
2021/05/11 06:27:58;;;;;;;11.82;3.72;;;;;;;16.29;57.45;100712.25;4956120;28;20055;-54
2021/05/11 06:30:26;;;;;;;7.90;2.72;;;;;;;16.33;57.27;100705.00;4956255;28;20043;-53
2021/05/11 06:32:55;;;;;;;9.18;3.22;;;;;;;16.32;57.56;100708.88;4268470;28;10000880;-54
2021/05/11 06:35:25;;;;;;;6.53;2.72;;;;;;;16.33;57.16;100707.75;4953813;28;20047;-53
2021/05/11 06:37:59;;;;;;;8.05;3.20;;;;;;;16.32;57.22;100703.38;4953838;28;20043;-55
2021/05/11 06:40:29;;;;;;;9.73;3.70;;;;;;;16.30;57.59;100705.63;4954208;28;20059;-51
2021/05/11 06:42:58;;;;;;;8.85;2.90;;;;;;;16.29;57.76;100707.56;4953423;28;20039;-52
2021/05/11 06:48:11;;;;;;;8.90;3.10;;;;;;;16.27;57.64;100692.50;4953549;28;20494;-53
2021/05/11 06:53:40;;;;;;;9.75;3.67;;;;;;;16.31;57.57;100683.34;4968707;28;20110;-53
2021/05/11 06:56:10;;;;;;;9.35;3.60;;;;;;;16.37;57.88;100693.06;4953323;28;20047;-52
2021/05/11 06:58:38;;;;;;;8.50;3.13;;;;;;;16.41;58.02;100687.78;4953317;28;20054;-53
2021/05/11 07:01:06;;;;;;;11.40;3.17;;;;;;;16.45;57.86;100687.97;4953367;28;20058;-55
2021/05/11 07:03:33;;;;;;;13.68;3.72;;;;;;;16.46;57.84;100678.59;4953384;28;20130;-53
2021/05/11 07:06:01;;;;;;;11.70;4.10;;;;;;;16.48;57.45;100677.16;4953207;28;20480;-51
2021/05/11 07:11:11;;;;;;;8.00;3.40;;;;;;;16.59;57.62;100677.72;4953336;28;20058;-55
2021/05/11 07:13:40;;;;;;;10.38;3.35;;;;;;;16.64;57.29;100669.34;4951935;28;20391;-56
2021/05/11 07:16:08;;;;;;;13.32;3.63;;;;;;;16.66;56.69;100669.84;4953635;28;20639;-54
2021/05/11 07:18:36;;;;;;;8.38;3.20;;;;;;;16.70;56.43;100668.09;4954676;28;20055;-55
2021/05/11 07:21:04;;;;;;;12.02;4.03;;;;;;;16.72;55.74;100670.56;4953880;28;20240;-56
2021/05/11 07:23:33;;;;;;;8.98;3.88;;;;;;;16.70;55.76;100675.56;4955274;28;20047;-53
2021/05/11 07:31:26;;;;;;;7.50;3.30;;;;;;;16.75;56.41;100687.22;4955169;28;20043;-52
2021/05/11 07:33:54;;;;;;;9.30;3.70;;;;;;;16.75;55.64;100691.94;4952507;28;20046;-53
2021/05/11 07:36:22;;;;;;;9.40;3.40;;;;;;;16.76;55.86;100691.63;4954976;29;20094;-51
2021/05/11 07:38:50;;;;;;;12.15;4.35;;;;;;;16.74;55.95;100696.63;4954830;28;20102;-54
2021/05/11 07:41:19;;;;;;;11.68;3.83;;;;;;;16.73;55.83;100691.41;4954441;28;20035;-51
2021/05/11 07:43:55;;;;;;;11.88;3.90;;;;;;;16.72;55.94;100687.06;4954511;28;20051;-53
2021/05/11 08:16:11;;;;;;;;;;;;;;;16.69;55.91;100690.41;4954680;28;20471;-55
2021/05/11 08:18:51;;;;;;;13.43;4.80;;;;;;;16.70;55.51;100689.31;4951947;28;20389;-51
2021/05/11 08:29:21;;;;;;;;;;;;;;;16.74;56.14;100701.28;4952114;28;20494;-54
2021/05/11 08:31:49;;;;;;;18.13;5.10;;;;;;;16.74;56.50;100701.28;4950608;28;19930;-55
2021/05/11 08:34:17;;;;;;;20.50;6.15;;;;;;;16.75;56.30;100700.19;4950882;28;20051;-57
2021/05/11 08:36:45;;;;;;;20.67;5.20;;;;;;;16.77;56.61;100697.94;4951646;28;20055;-54
2021/05/11 08:39:13;;;;;;;14.68;5.63;;;;;;;16.78;56.44;100702.28;4951361;28;20051;-55
2021/05/11 08:41:40;;;;;;;12.38;5.10;;;;;;;16.77;56.42;100700.69;4951334;28;20054;-54
2021/05/11 08:44:13;;;;;;;30.55;7.07;;;;;;;16.79;56.65;100710.28;4951479;28;20054;-54
2021/05/11 08:46:41;;;;;;;21.52;6.00;;;;;;;16.78;56.94;100705.06;4951017;28;20419;-54
2021/05/11 08:49:14;;;;;;;18.60;6.13;;;;;;;16.78;57.09;100707.81;4951157;28;20110;-55
2021/05/11 08:51:53;;;;;;;15.93;6.43;;;;;;;16.80;57.18;100711.91;4941150;29;20047;-54
2021/05/11 09:04:35;;;;;;;37.88;7.25;;;;;;;16.81;56.64;100707.19;4952949;28;20051;-54
2021/05/11 09:25:26;;;;;;;10.60;4.65;;;;;;;16.83;56.13;100737.97;4953328;28;20102;-55
2021/05/11 09:28:03;;;;;;;22.60;6.82;;;;;;;16.89;56.37;100741.44;4949066;29;20051;-56
2021/05/11 09:56:16;;;;;;;12.40;3.97;;;;;;;16.95;54.28;100724.47;4956582;28;20055;-56
2021/05/11 10:36:32;;;;;;;11.40;4.38;;;;;;;17.06;54.26;100675.47;4929150;29;20052;-55
2021/05/11 10:48:32;;;;;;;14.20;4.10;;;;;;;17.27;53.47;100644.63;4875089;29;20045;-54
2021/05/11 10:51:06;;;;;;;12.85;4.57;;;;;;;17.28;54.09;100649.03;4875402;29;20113;-52
2021/05/11 10:53:44;;;;;;;14.18;4.65;;;;;;;17.29;53.40;100637.69;4875151;29;20049;-55
2021/05/11 10:56:28;;;;;;;11.07;3.70;;;;;;;17.31;52.34;100638.19;4859027;29;20053;-53
2021/05/11 11:04:31;;;;;;;14.95;4.22;;;;;;;17.19;53.03;100635.22;4874952;29;20045;-55
2021/05/11 11:06:59;;;;;;;11.93;3.90;;;;;;;17.16;53.26;100644.13;4870348;29;20064;-54
2021/05/11 11:09:32;;;;;;;10.68;4.07;;;;;;;17.11;53.08;100644.25;4874438;29;20045;-55
2021/05/11 11:12:01;;;;;;;10.85;4.10;;;;;;;17.11;52.91;100647.00;4876596;29;20060;-55
2021/05/11 11:14:41;;;;;;;9.45;3.85;;;;;;;17.13;52.34;100647.50;4877535;29;20485;-56
2021/05/11 11:17:11;;;;;;;12.05;3.83;;;;;;;17.17;52.18;100652.06;4877408;29;20067;-56
2021/05/11 11:19:39;;;;;;;11.48;3.88;;;;;;;17.19;52.40;100654.50;4948200;29;20055;-56
2021/05/11 11:24:54;;;;;;;9.70;3.25;;;;;;;17.21;51.83;100661.31;4953767;29;20043;-55
2021/05/11 11:27:26;;;;;;;9.80;3.30;;;;;;;17.23;52.23;100659.03;4953699;29;20044;-55
2021/05/11 11:30:08;;;;;;;8.85;3.40;;;;;;;17.25;52.08;100661.50;4954976;28;20062;-55
2021/05/11 11:32:36;;;;;;;10.13;3.55;;;;;;;17.27;52.04;100662.00;4954623;28;20055;-55
2021/05/11 11:35:07;;;;;;;13.95;4.60;;;;;;;17.30;52.06;100669.63;4954941;28;20138;-54
2021/05/11 11:37:34;;;;;;;10.00;3.80;;;;;;;17.33;51.27;100670.91;4954704;28;20096;-52
2021/05/11 11:40:07;;;;;;;11.20;3.97;;;;;;;17.34;52.35;100673.38;4954753;28;20183;-54
2021/05/11 11:42:42;;;;;;;13.23;4.50;;;;;;;17.37;52.75;100675.47;4954689;28;20060;-55
2021/05/11 11:45:15;;;;;;;9.52;2.85;;;;;;;17.35;49.00;100672.22;4954746;28;20114;-54
2021/05/11 11:47:50;;;;;;;7.43;2.90;;;;;;;17.30;48.85;100675.13;4953547;29;20047;-55
2021/05/11 11:50:19;;;;;;;11.45;3.03;;;;;;;17.28;49.69;100674.63;4954732;28;20039;-55
2021/05/11 11:53:01;;;;;;;8.50;3.75;;;;;;;17.27;50.71;100675.75;4954819;28;20043;-54
2021/05/11 11:58:23;;;;;;;10.63;3.60;;;;;;;17.22;51.08;100678.63;4954193;28;20043;-55
2021/05/11 12:00:51;;;;;;;10.18;3.70;;;;;;;17.21;50.72;100677.81;4955346;28;20498;-55
2021/05/11 12:03:22;;;;;;;27.95;5.60;;;;;;;17.22;51.80;100684.13;4959556;28;20557;-53
2021/05/11 12:05:58;;;;;;;19.90;4.25;;;;;;;17.21;51.76;100694.34;4959350;29;20047;-55
2021/05/11 12:08:29;;;;;;;16.80;4.70;;;;;;;17.21;51.49;100694.34;4960083;28;20094;-51
2021/05/11 12:11:01;;;;;;;9.15;3.40;;;;;;;17.20;51.02;100678.97;4958715;28;20031;-51
2021/05/11 12:13:33;;;;;;;8.57;3.25;;;;;;;17.19;50.66;100685.56;4956022;28;20074;-53
2021/05/11 12:16:17;;;;;;;11.25;3.45;;;;;;;17.19;50.74;100691.09;4954994;28;20058;-55
2021/05/11 12:19:11;;;;;;;7.85;3.10;;;;;;;17.21;50.21;100693.53;4954079;28;20443;-55
2021/05/11 12:22:06;;;;;;;12.05;3.25;;;;;;;17.23;50.78;100683.03;4954146;28;20059;-55
2021/05/11 12:24:40;;;;;;;11.48;3.50;;;;;;;17.23;51.21;100680.28;4952701;28;20047;-54
2021/05/11 12:27:15;;;;;;;24.38;4.60;;;;;;;17.24;51.56;100681.88;4954228;28;20050;-54
2021/05/11 12:30:06;;;;;;;11.25;3.22;;;;;;;17.22;50.63;100684.97;4954215;28;20051;-55
2021/05/11 12:32:34;;;;;;;37.40;5.15;;;;;;;17.21;51.30;100696.28;4953986;28;20035;-53
2021/05/11 12:35:10;;;;;;;15.85;3.83;;;;;;;17.20;51.21;100680.91;4954171;28;20047;-56
2021/05/11 12:37:55;;;;;;;9.75;3.28;;;;;;;17.19;50.74;100682.81;4953522;28;20042;-55
2021/05/11 12:40:32;;;;;;;8.60;3.22;;;;;;;17.19;50.31;100690.28;4954163;28;20050;-55
2021/05/11 12:43:02;;;;;;;7.57;2.95;;;;;;;17.18;50.75;100694.19;4954036;28;20062;-54
2021/05/11 12:45:35;;;;;;;8.55;2.90;;;;;;;17.19;51.29;100693.03;4954195;28;20467;-54
2021/05/11 12:48:05;;;;;;;12.85;2.72;;;;;;;17.16;51.41;100683.47;4953903;28;20494;-54
2021/05/11 12:50:39;;;;;;;8.02;2.90;;;;;;;17.18;51.54;100688.66;4952605;28;20050;-53
2021/05/11 12:59:15;;;;;;;25.70;4.85;;;;;;;17.14;52.14;100687.66;4953762;28;20043;-53
2021/05/11 13:01:59;;;;;;;13.27;3.28;;;;;;;17.15;52.94;100689.28;4953379;28;20055;-55
2021/05/11 13:26:08;;;;;;;10.32;3.88;;;;;;;17.21;53.78;100697.09;4957269;28;20079;-53
2021/05/11 13:28:56;;;;;;;9.00;4.18;;;;;;;17.23;54.47;100694.03;4957367;28;20059;-52
2021/05/11 13:31:36;;;;;;;12.00;4.25;;;;;;;17.20;54.15;100692.72;4957614;28;20055;-55
2021/05/11 13:34:13;;;;;;;11.50;3.80;;;;;;;17.21;53.83;100699.03;4957001;28;20055;-55
2021/05/11 13:36:42;;;;;;;8.13;3.80;;;;;;;17.23;54.11;100705.06;4956737;28;20114;-52
2021/05/11 13:39:10;;;;;;;10.25;3.50;;;;;;;17.23;54.18;100702.28;4955823;28;20047;-54
2021/05/11 13:41:39;;;;;;;10.35;3.63;;;;;;;17.24;54.45;100710.25;4957078;28;20051;-52
2021/05/11 13:44:07;;;;;;;10.18;3.55;;;;;;;17.26;54.53;100704.41;4956928;28;20043;-53
2021/05/11 13:46:35;;;;;;;10.13;4.32;;;;;;;17.24;54.50;100715.75;4957319;28;20043;-55
2021/05/11 13:49:03;;;;;;;12.25;4.18;;;;;;;17.25;54.68;100711.06;4956969;28;20035;-56
2021/05/11 13:51:32;;;;;;;14.80;4.82;;;;;;;17.23;54.25;100705.06;4971244;28;20445;-56
2021/05/11 13:54:05;;;;;;;15.23;4.22;;;;;;;17.22;54.52;100695.16;4957033;28;20051;-53
2021/05/11 13:56:56;;;;;;;11.70;4.13;;;;;;;17.23;54.77;100685.78;4956862;28;20043;-52
2021/05/11 14:02:27;;;;;;;11.65;3.95;;;;;;;17.30;55.03;100675.13;4957056;28;20034;-57
2021/05/11 14:04:54;;;;;;;14.23;4.88;;;;;;;17.20;55.94;100661.63;4956108;28;20051;-56
2021/05/11 14:07:22;;;;;;;13.32;5.13;;;;;;;17.09;56.89;100646.50;4956914;28;20031;-54
2021/05/11 14:09:50;;;;;;;11.93;4.93;;;;;;;16.95;57.90;100644.66;4956591;28;20398;-55
2021/05/11 14:12:18;;;;;;;14.65;5.63;;;;;;;16.98;58.54;100656.97;4956449;28;20049;-55
2021/05/11 14:14:46;;;;;;;13.27;5.20;;;;;;;17.02;57.72;100668.97;4956934;28;20050;-55
2021/05/11 14:17:14;;;;;;;16.90;5.38;;;;;;;17.01;57.33;100679.19;4956537;28;20078;-52
2021/05/11 14:19:43;;;;;;;11.18;5.55;;;;;;;16.99;57.13;100691.63;4955013;28;20051;-56
2021/05/11 14:22:10;;;;;;;15.35;5.85;;;;;;;16.90;58.28;100693.50;4955853;28;20047;-56
2021/05/11 14:24:38;;;;;;;10.85;5.50;;;;;;;16.92;58.62;100702.28;4956369;28;20047;-54
2021/05/11 14:27:06;;;;;;;12.75;6.32;;;;;;;16.92;58.46;100699.53;4956377;28;20392;-53
2021/05/11 14:29:34;;;;;;;10.75;5.78;;;;;;;16.89;59.16;100703.72;4956331;28;20043;-53
2021/05/11 14:32:02;;;;;;;15.63;6.97;;;;;;;16.93;59.39;100704.72;4956660;28;20043;-53
2021/05/11 14:34:30;;;;;;;12.48;6.05;;;;;;;16.92;59.26;100708.59;4954044;28;20047;-52
2021/05/11 14:36:58;;;;;;;13.77;6.65;;;;;;;16.96;59.25;100704.09;4956144;28;20458;-54
2021/05/11 14:39:26;;;;;;;15.82;6.63;;;;;;;16.88;59.87;100702.06;4954748;28;20045;-53
2021/05/11 14:41:57;;;;;;;36.05;8.75;;;;;;;16.86;59.94;100704.34;4956239;28;20521;-50
2021/05/11 14:44:26;;;;;;;18.05;6.22;;;;;;;16.88;59.95;100696.56;4954700;28;20175;-53
2021/05/11 14:46:57;;;;;;;12.68;7.18;;;;;;;16.86;59.80;100698.84;4270375;28;10000527;-52
2021/05/11 14:49:26;;;;;;;17.58;8.07;;;;;;;16.83;59.47;100685.69;4953183;28;20047;-55
2021/05/11 14:51:54;;;;;;;14.30;8.00;;;;;;;16.84;59.20;100698.34;4953892;28;20043;-54
2021/05/11 14:54:22;;;;;;;17.38;9.02;;;;;;;16.84;59.99;100698.34;4952738;28;20126;-51
2021/05/11 14:56:50;;;;;;;16.67;8.52;;;;;;;16.81;59.39;100713.53;4953957;28;20052;-51
2021/05/11 14:59:19;;;;;;;13.45;6.35;;;;;;;16.82;59.13;100715.16;4953526;28;20051;-50
2021/05/11 15:01:46;;;;;;;15.00;6.88;;;;;;;16.83;59.21;100710.47;4952606;29;20534;-52
2021/05/11 15:04:14;;;;;;;14.65;6.30;;;;;;;16.86;58.91;100709.84;4953796;28;20039;-53
2021/05/11 15:06:43;;;;;;;20.70;6.47;;;;;;;16.86;59.01;100715.34;4954009;28;20086;-53
2021/05/11 15:09:10;;;;;;;26.13;7.20;;;;;;;16.85;58.67;100705.47;4954045;28;20047;-53
2021/05/11 15:11:38;;;;;;;15.13;6.15;;;;;;;16.83;58.70;100704.94;4954054;28;20082;-53
2021/05/11 15:14:06;;;;;;;16.27;6.70;;;;;;;16.84;59.00;100703.84;4954508;28;20035;-54
2021/05/11 15:16:38;;;;;;;13.25;6.07;;;;;;;16.79;58.72;100703.97;4954493;28;20088;-56
2021/05/11 15:19:08;;;;;;;14.15;6.40;;;;;;;16.76;58.98;100704.53;4955076;28;20475;-54
2021/05/11 15:21:36;;;;;;;13.40;6.05;;;;;;;16.70;58.79;100703.88;4954953;28;20067;-55
2021/05/11 15:24:06;;;;;;;11.25;6.10;;;;;;;16.72;58.51;100692.56;4954984;28;20035;-53
2021/05/11 15:26:34;;;;;;;14.38;6.40;;;;;;;16.69;58.09;100698.66;4955015;28;20081;-54
2021/05/11 15:29:02;;;;;;;14.75;6.78;;;;;;;16.70;57.77;100692.06;4953630;28;20098;-54
2021/05/11 15:31:30;;;;;;;12.13;6.35;;;;;;;16.71;57.64;100691.72;4953159;28;20047;-54
2021/05/11 15:33:58;;;;;;;15.52;6.85;;;;;;;16.73;57.31;100694.19;4952047;28;20126;-53
2021/05/11 15:36:27;;;;;;;11.43;6.47;;;;;;;16.67;57.66;100690.75;4952820;28;20491;-55
2021/05/11 15:38:55;;;;;;;14.45;6.28;;;;;;;16.72;57.88;100693.38;4968076;28;20048;-54
2021/05/11 15:41:24;;;;;;;14.52;7.10;;;;;;;16.77;58.17;100690.47;4952842;28;20055;-56
2021/05/11 15:43:52;;;;;;;13.90;5.70;;;;;;;16.79;57.76;100692.97;4952819;28;20489;-56
2021/05/11 15:46:19;;;;;;;14.95;5.72;;;;;;;16.79;57.31;100698.47;4950836;28;20036;-54
2021/05/11 15:48:47;;;;;;;10.13;5.15;;;;;;;16.76;55.83;100708.13;4952544;28;20117;-55